• Join FlightAware (Why Join?)
  • Login
  • US Flag 
10:32AM EDT


 

Airport Tracker/Info


-or-


 

Live Flight TrackerFlight Track Log ✈ N745VJ ✈ 23-Apr-2013 ✈ KPWM - KCLT

Flight Track Log - Related Links

Times and Time Zones

All times are in EDT time to prevent confusion due to time zone crossing. See the N745VJ flight status page for this flight to view local times or setup timezone preferences in your user account.

Time Position Orientation Groundspeed Altitude Reporting Facility
EDT Latitude Longitude Course Direction KTS MPH feet Rate Location/Type
08:05AM 43.6503 -70.4603 216° Southwest 230 265 4,200  Level Boston Center
08:06AM 43.5210 -70.1698 229° Southwest  Level FlightAware Approximate
08:06AM 43.6011 -70.5047 213° Southwest 250 288 7,300  Level Boston Center
08:07AM 43.4536 -70.2775 229° Southwest  Level FlightAware Approximate
08:08AM 43.3895 -70.3881 226° Southwest  Level FlightAware Approximate
08:08AM 43.5189 -70.5761 212° Southwest 260 299 10,600  Level Boston Center
08:09AM 43.3177 -70.4901 228° Southwest  Level FlightAware Approximate
08:09AM 43.4319 -70.6103 196° South 311 358 12,000  Level Boston Center
08:10AM 43.2542 -70.5958 216° Southwest  Level FlightAware Approximate
08:10AM 43.3386 -70.6472 196° South 365 420 14,000  Level Boston Center
08:11AM 43.1708 -70.6792 216° Southwest  Level FlightAware Approximate
08:11AM 43.2247 -70.6933 196° South 390 449 16,500  Level Boston Center
08:12AM 43.1319 -70.7444 202° Southwest 397 457 18,000 1,860 Climbing Boston Center
08:13AM 43.0328 -70.8125 207° Southwest 402 463 20,300 2,100 Climbing Boston Center
08:14AM 42.9336 -70.8833 208° Southwest 402 463 22,300 1,860 Climbing Boston Center
08:15AM 42.8325 -70.9567 208° Southwest 407 468 24,100 1,680 Climbing Boston Center
08:16AM 42.7247 -71.0072 199° South 407 468 25,700 1,800 Climbing Boston Center
08:17AM 42.6192 -71.0603 200° South 412 474 27,800 1,860 Climbing Boston Center
08:18AM 42.5156 -71.1106 200° South 407 468 29,500 1,620 Climbing Boston Center
08:19AM 42.4269 -71.1856 212° Southwest 397 457 31,100 1,560 Climbing Boston Center
08:20AM 42.3761 -71.3103 241° Southwest 369 425 32,700 1,680 Climbing Boston Center
08:21AM 42.3356 -71.4431 248° West 369 425 34,500 1,740 Climbing Boston Center
08:22AM 42.2947 -71.5558 244° Southwest 369 425 36,200 1,320 Climbing Boston Center
08:23AM 42.2583 -71.6772 248° West 358 412 37,200 840 Climbing Boston Center
08:24AM 42.2214 -71.7981 248° West 358 412 37,900 360 Climbing Boston Center
08:25AM 42.1844 -71.9161 247° West 358 412 38,000  Climbing Boston Center
08:26AM 42.1475 -72.0369 248° West 353 406 38,000  Level Boston Center
08:27AM 42.1083 -72.1575 246° West 353 406 38,000  Level Boston Center
08:28AM 42.0792 -72.2528 248° West 353 406 38,000  Level Boston Center
08:29AM 42.0336 -72.3981 247° West 353 406 38,000 -60 Level Boston Center
08:30AM 41.9939 -72.5183 246° West 353 406 37,900 -60 Descending Boston Center
08:31AM 41.9564 -72.6356 247° West 353 406 37,900  Level Boston Center
08:32AM 41.9039 -72.7442 237° Southwest 340 391 37,900  Level Boston Center
08:33AM 41.8350 -72.8358 225° Southwest 345 397 37,900  Level Boston Center
08:34AM 41.7533 -72.9436 225° Southwest 367 422 38,000  Climbing Boston Center
08:35AM 41.6861 -73.0378 226° Southwest 367 422 38,000  Level Boston Center
08:36AM 41.6189 -73.1289 225° Southwest 360 414 38,000 -60 Level Boston Center
08:37AM 41.5036 -73.2811 225° Southwest 339 390 37,900 -60 Descending New York Center
08:38AM 41.4347 -73.3781 227° Southwest 351 404 37,900  Level New York Center
08:39AM 41.3661 -73.4692 225° Southwest 351 404 37,900  Level New York Center
08:40AM 41.2953 -73.5631 225° Southwest 356 410 37,900  Level New York Center
08:41AM 41.2303 -73.6650 230° Southwest 362 417 37,900  Level New York Center
08:42AM 41.1692 -73.7756 234° Southwest 367 422 37,900  Level New York Center
08:43AM 41.1061 -73.8772 231° Southwest 372 428 37,900  Level New York Center
08:44AM 41.0450 -73.9817 232° Southwest 367 422 37,900  Level New York Center
08:45AM 40.9817 -74.0886 232° Southwest 367 422 37,900  Level New York Center
08:46AM 40.9203 -74.1928 232° Southwest 367 422 37,900  Level New York Center
08:47AM 40.8550 -74.2911 229° Southwest 367 422 37,900  Level New York Center
08:48AM 40.7914 -74.4000 232° Southwest 367 422 37,900  Level New York Center
08:49AM 40.7297 -74.5008 231° Southwest 367 422 37,900  Level New York Center
08:50AM 40.6661 -74.6067 232° Southwest 367 422 37,900  Level New York Center
08:51AM 40.6000 -74.7097 230° Southwest 367 422 37,900  Level New York Center
08:52AM 40.5364 -74.8097 230° Southwest 362 417 37,900  Level New York Center
08:53AM 40.4681 -74.9094 228° Southwest 362 417 37,900  Level New York Center
08:54AM 40.3981 -75.0033 226° Southwest 367 422 37,900  Level New York Center
08:55AM 40.3303 -75.0972 227° Southwest 367 422 37,900  Level New York Center
08:56AM 40.2619 -75.1964 228° Southwest 367 422 38,000  Climbing New York Center
08:57AM 40.1869 -75.3028 227° Southwest 372 428 38,000 -60 Level New York Center
08:58AM 40.1186 -75.3989 227° Southwest 372 428 37,900 -60 Descending New York Center
08:59AM 40.0458 -75.4972 226° Southwest 372 428 37,900  Level New York Center
09:00AM 39.9772 -75.5956 228° Southwest 372 428 37,900  Level New York Center
09:01AM 39.9067 -75.6933 227° Southwest 372 428 37,900  Level New York Center
09:02AM 39.8394 -75.7994 230° Southwest 377 434 37,900  Level New York Center
09:03AM 39.7744 -75.9083 232° Southwest 388 447 37,900  Level New York Center
09:04AM 39.7072 -76.0142 230° Southwest 388 447 37,900  Level New York Center
09:06AM 39.6103 -76.1625 230° Southwest 388 447 37,900  Level Washington Center
09:07AM 39.5408 -76.2669 229° Southwest 388 447 37,900  Level Washington Center
09:08AM 39.4714 -76.3767 231° Southwest 393 452 38,000  Climbing Washington Center
09:09AM 39.4083 -76.4833 233° Southwest 393 452 37,900 -60 Descending Washington Center
09:10AM 39.3239 -76.6003 227° Southwest 393 452 37,900  Level Washington Center
09:11AM 39.2564 -76.7094 231° Southwest 398 458 38,000  Climbing Washington Center
09:12AM 39.1864 -76.8181 230° Southwest 398 458 38,000  Level Washington Center
09:13AM 39.1144 -76.9292 230° Southwest 403 464 38,000  Level Washington Center
09:14AM 39.0403 -77.0400 229° Southwest 403 464 38,000  Level Washington Center
09:15AM 38.9536 -77.1344 220° Southwest 403 464 38,000  Level Washington Center
09:16AM 38.8667 -77.2339 222° Southwest 409 471 38,000 -60 Level Washington Center
09:17AM 38.7800 -77.3278 220° Southwest 414 476 37,900 -60 Descending Washington Center
09:18AM 38.6931 -77.4217 220° Southwest 419 482 37,900  Level Washington Center
09:19AM 38.6039 -77.5231 222° Southwest 419 482 38,000  Climbing Washington Center
09:20AM 38.5314 -77.6167 225° Southwest 419 482 38,000 -60 Level Washington Center
09:21AM 38.4483 -77.7258 226° Southwest 424 488 37,900  Descending Washington Center
09:22AM 38.3672 -77.8347 226° Southwest 424 488 38,000  Climbing Washington Center
09:23AM 38.2817 -77.9433 225° Southwest 424 488 38,000  Level Washington Center
09:24AM 38.1958 -78.0542 225° Southwest 429 494 38,000  Level Washington Center
09:25AM 38.1103 -78.1647 225° Southwest 429 494 38,000 -60 Level Washington Center
09:26AM 38.0244 -78.2725 225° Southwest 429 494 37,900 -60 Descending Washington Center
09:27AM 37.9383 -78.3853 226° Southwest 424 488 37,900  Level Washington Center
09:28AM 37.8611 -78.4825 225° Southwest 424 488 37,900  Level Washington Center
09:29AM 37.7750 -78.5869 224° Southwest 424 488 38,000  Climbing Washington Center
09:30AM 37.6908 -78.6964 226° Southwest 424 488 38,000  Level Washington Center
09:31AM 37.6047 -78.8056 225° Southwest 424 488 38,000 -300 Level Washington Center
09:32AM 37.5183 -78.9094 224° Southwest 424 488 37,500 -840 Descending Washington Center
09:33AM 37.4211 -79.0281 224° Southwest 429 494 36,400 -1,080 Descending Washington Center
09:34AM 37.3347 -79.1339 224° Southwest 439 505 35,400 -1,200 Descending Washington Center
09:35AM 37.2417 -79.2442 223° Southwest 449 517 34,000 -720 Descending Washington Center
09:36AM 37.1344 -79.3356 214° Southwest 462 532 34,000 -360 Level Washington Center
09:37AM 37.0275 -79.4242 213° Southwest 467 537 33,400 -840 Descending Washington Center
09:38AM 36.9203 -79.5122 213° Southwest 467 537 32,400 -1,020 Descending Washington Center
09:39AM 36.8281 -79.5881 213° Southwest 461 531 31,400 -960 Descending Washington Center
09:40AM 36.7206 -79.6758 213° Southwest 461 531 30,500 -1,800 Descending Washington Center
09:43AM 36.4369 -79.9019 213° Southwest 448 516 24,800 -2,220 Descending Atlanta Center
09:44AM 36.3394 -79.9792 213° Southwest 428 493 22,400 -1,860 Descending Atlanta Center
09:45AM 36.2522 -80.0558 215° Southwest 410 472 21,100 -1,620 Descending Atlanta Center
09:46AM 36.1650 -80.1294 214° Southwest 398 458 19,200 -1,740 Descending Atlanta Center
09:47AM 36.0736 -80.2083 215° Southwest 380 437 17,700 -1,500 Descending Atlanta Center
09:48AM 35.9922 -80.2764 214° Southwest 367 422 16,300 -1,500 Descending Atlanta Center
09:49AM 35.9153 -80.3492 217° Southwest 352 405 14,800 -1,560 Descending Atlanta Center
09:50AM 35.8381 -80.4167 215° Southwest 336 387 13,200 -1,260 Descending Atlanta Center
09:51AM 35.7644 -80.4736 212° Southwest 335 386 12,300 -1,140 Descending Atlanta Center
09:52AM 35.7056 -80.5275 217° Southwest 286 329 11,000 -720 Descending Atlanta Center
09:53AM 35.6383 -80.5839 214° Southwest 289 333 11,000  Level Atlanta Center
09:54AM 35.5647 -80.6408 212° Southwest 289 333 11,000 -540 Level Atlanta Center
09:55AM 35.5017 -80.6969 216° Southwest 287 330 10,000 -540 Descending Atlanta Center
09:56AM 35.4469 -80.7553 221° Southwest 296 341 10,000  Level Atlanta Center
09:57AM 35.3903 -80.8264 226° Southwest 289 333 10,000  Level Atlanta Center
09:58AM 35.3217 -80.9156 227° Southwest 285 328 10,000 -420 Level Atlanta Center
09:59AM 35.2672 -80.9836 226° Southwest 285 328 9,200 -540 Descending Atlanta Center
10:00AM 35.2061 -81.0519 222° Southwest 287 330 8,900 -900 Descending Atlanta Center
10:01AM 35.1228 -81.0500 179° South 285 328 7,300 -1,440 Descending Atlanta Center
10:02AM 35.0497 -81.0525 182° South 289 333 6,000 -720 Descending Atlanta Center
10:03AM 34.9622 -81.0583 183° South 288 331 6,000 -360 Level Atlanta Center
10:04AM 34.8828 -81.0561 179° South 283 326 5,300 -540 Descending Atlanta Center
10:05AM 34.8278 -81.0225 153° Southeast 234 269 5,000 -180 Descending Atlanta Center
10:06AM 34.8728 -80.9831 36° Northeast 188 216 5,000  Level Atlanta Center
10:07AM 34.9264 -80.9531 25° Northeast 207 238 5,000  Level Atlanta Center
10:08AM 34.9825 -80.9486 North 208 239 5,000 -540 Level Atlanta Center
10:09AM 35.0389 -80.9539 356° North 202 232 4,000 -1,020 Descending Atlanta Center